sensor_id;sensor_type;location;lat;lon;timestamp;temperature;humidity
20487;DHT22;10402;49.012;8.370;2022-07-29T00:00:36;24.00;55.90
20487;DHT22;10402;49.012;8.370;2022-07-29T00:03:02;24.00;56.10
20487;DHT22;10402;49.012;8.370;2022-07-29T00:05:28;24.00;56.20
20487;DHT22;10402;49.012;8.370;2022-07-29T00:07:53;24.00;56.30
20487;DHT22;10402;49.012;8.370;2022-07-29T00:10:19;24.00;56.40
20487;DHT22;10402;49.012;8.370;2022-07-29T00:12:45;23.90;56.40
20487;DHT22;10402;49.012;8.370;2022-07-29T00:15:10;23.90;56.40
20487;DHT22;10402;49.012;8.370;2022-07-29T00:17:36;24.00;56.60
20487;DHT22;10402;49.012;8.370;2022-07-29T00:20:02;23.90;56.60
20487;DHT22;10402;49.012;8.370;2022-07-29T00:22:28;23.90;56.70
20487;DHT22;10402;49.012;8.370;2022-07-29T00:24:54;23.90;56.90
20487;DHT22;10402;49.012;8.370;2022-07-29T00:27:19;23.90;57.00
20487;DHT22;10402;49.012;8.370;2022-07-29T00:29:45;23.90;57.20
20487;DHT22;10402;49.012;8.370;2022-07-29T00:32:10;23.90;57.30
20487;DHT22;10402;49.012;8.370;2022-07-29T00:34:36;23.80;57.30
20487;DHT22;10402;49.012;8.370;2022-07-29T00:37:20;23.80;57.40
20487;DHT22;10402;49.012;8.370;2022-07-29T00:39:46;23.80;57.50
20487;DHT22;10402;49.012;8.370;2022-07-29T00:42:11;23.80;57.60
20487;DHT22;10402;49.012;8.370;2022-07-29T00:44:38;23.80;57.80
20487;DHT22;10402;49.012;8.370;2022-07-29T00:47:04;23.70;57.70
20487;DHT22;10402;49.012;8.370;2022-07-29T00:49:30;23.70;57.90
20487;DHT22;10402;49.012;8.370;2022-07-29T00:51:57;23.70;58.10
20487;DHT22;10402;49.012;8.370;2022-07-29T00:54:23;23.60;58.20
20487;DHT22;10402;49.012;8.370;2022-07-29T00:56:49;23.60;58.30
20487;DHT22;10402;49.012;8.370;2022-07-29T00:59:15;23.50;58.40
20487;DHT22;10402;49.012;8.370;2022-07-29T01:01:40;23.50;58.50
20487;DHT22;10402;49.012;8.370;2022-07-29T01:04:06;23.50;58.50
20487;DHT22;10402;49.012;8.370;2022-07-29T01:06:32;23.60;58.50
20487;DHT22;10402;49.012;8.370;2022-07-29T01:08:59;23.50;58.40
20487;DHT22;10402;49.012;8.370;2022-07-29T01:11:25;23.50;58.50
20487;DHT22;10402;49.012;8.370;2022-07-29T01:13:51;23.50;58.60
20487;DHT22;10402;49.012;8.370;2022-07-29T01:16:31;23.50;58.80
20487;DHT22;10402;49.012;8.370;2022-07-29T01:19:04;23.40;58.80
20487;DHT22;10402;49.012;8.370;2022-07-29T01:21:53;23.40;59.00
20487;DHT22;10402;49.012;8.370;2022-07-29T01:24:33;23.40;59.00
20487;DHT22;10402;49.012;8.370;2022-07-29T01:29:55;23.40;59.10
20487;DHT22;10402;49.012;8.370;2022-07-29T01:32:26;23.40;59.10
20487;DHT22;10402;49.012;8.370;2022-07-29T01:35:02;23.40;59.20
20487;DHT22;10402;49.012;8.370;2022-07-29T01:40:22;23.40;59.10
20487;DHT22;10402;49.012;8.370;2022-07-29T01:42:52;23.40;59.10
20487;DHT22;10402;49.012;8.370;2022-07-29T01:48:02;23.40;59.20
20487;DHT22;10402;49.012;8.370;2022-07-29T01:50:36;23.40;59.30
20487;DHT22;10402;49.012;8.370;2022-07-29T01:53:09;23.40;59.30
20487;DHT22;10402;49.012;8.370;2022-07-29T01:55:39;23.40;59.40
20487;DHT22;10402;49.012;8.370;2022-07-29T01:58:06;23.30;59.30
20487;DHT22;10402;49.012;8.370;2022-07-29T02:00:33;23.30;59.40
20487;DHT22;10402;49.012;8.370;2022-07-29T02:03:01;23.30;59.50
20487;DHT22;10402;49.012;8.370;2022-07-29T02:05:30;23.30;59.70
20487;DHT22;10402;49.012;8.370;2022-07-29T02:07:58;23.30;59.70
20487;DHT22;10402;49.012;8.370;2022-07-29T02:10:30;23.20;59.70
20487;DHT22;10402;49.012;8.370;2022-07-29T02:12:57;23.20;59.80
20487;DHT22;10402;49.012;8.370;2022-07-29T02:15:27;23.20;59.90
20487;DHT22;10402;49.012;8.370;2022-07-29T02:18:04;23.10;59.90
20487;DHT22;10402;49.012;8.370;2022-07-29T02:20:31;23.00;59.90
20487;DHT22;10402;49.012;8.370;2022-07-29T02:22:59;23.00;60.00
20487;DHT22;10402;49.012;8.370;2022-07-29T02:25:26;23.00;60.10
20487;DHT22;10402;49.012;8.370;2022-07-29T02:27:56;23.00;60.20
20487;DHT22;10402;49.012;8.370;2022-07-29T02:30:22;23.00;60.30
20487;DHT22;10402;49.012;8.370;2022-07-29T02:32:49;23.00;60.70
20487;DHT22;10402;49.012;8.370;2022-07-29T02:35:17;23.00;60.60
20487;DHT22;10402;49.012;8.370;2022-07-29T02:37:44;22.90;60.60
20487;DHT22;10402;49.012;8.370;2022-07-29T02:40:11;22.90;60.70
20487;DHT22;10402;49.012;8.370;2022-07-29T02:42:41;22.90;60.80
20487;DHT22;10402;49.012;8.370;2022-07-29T02:45:08;22.90;61.00
20487;DHT22;10402;49.012;8.370;2022-07-29T02:47:39;22.80;61.00
20487;DHT22;10402;49.012;8.370;2022-07-29T02:50:11;22.80;62.00
20487;DHT22;10402;49.012;8.370;2022-07-29T02:52:54;22.70;61.10
20487;DHT22;10402;49.012;8.370;2022-07-29T02:58:01;22.80;61.30
20487;DHT22;10402;49.012;8.370;2022-07-29T03:00:29;22.70;61.40
20487;DHT22;10402;49.012;8.370;2022-07-29T03:02:58;22.70;61.40
20487;DHT22;10402;49.012;8.370;2022-07-29T03:05:24;22.70;61.50
20487;DHT22;10402;49.012;8.370;2022-07-29T03:07:57;22.70;61.60
20487;DHT22;10402;49.012;8.370;2022-07-29T03:10:25;22.60;61.50
20487;DHT22;10402;49.012;8.370;2022-07-29T03:12:51;22.70;61.60
20487;DHT22;10402;49.012;8.370;2022-07-29T03:15:18;22.70;61.70
20487;DHT22;10402;49.012;8.370;2022-07-29T03:17:44;22.70;61.80
20487;DHT22;10402;49.012;8.370;2022-07-29T03:20:11;22.70;61.90
20487;DHT22;10402;49.012;8.370;2022-07-29T03:22:42;22.60;61.90
20487;DHT22;10402;49.012;8.370;2022-07-29T03:25:10;22.60;62.00
20487;DHT22;10402;49.012;8.370;2022-07-29T03:27:36;22.60;62.10
20487;DHT22;10402;49.012;8.370;2022-07-29T03:30:02;22.60;62.20
20487;DHT22;10402;49.012;8.370;2022-07-29T03:32:28;22.60;62.30
20487;DHT22;10402;49.012;8.370;2022-07-29T03:34:54;22.60;62.30
20487;DHT22;10402;49.012;8.370;2022-07-29T03:37:19;22.50;62.30
20487;DHT22;10402;49.012;8.370;2022-07-29T03:39:46;22.50;62.40
20487;DHT22;10402;49.012;8.370;2022-07-29T03:42:14;22.50;62.50
20487;DHT22;10402;49.012;8.370;2022-07-29T03:44:42;22.50;62.60
20487;DHT22;10402;49.012;8.370;2022-07-29T03:47:09;22.50;62.70
20487;DHT22;10402;49.012;8.370;2022-07-29T03:49:36;22.40;62.80
20487;DHT22;10402;49.012;8.370;2022-07-29T03:52:04;22.40;63.00
20487;DHT22;10402;49.012;8.370;2022-07-29T03:54:29;22.40;63.00
20487;DHT22;10402;49.012;8.370;2022-07-29T03:56:56;22.40;63.10
20487;DHT22;10402;49.012;8.370;2022-07-29T03:59:24;22.40;63.00
20487;DHT22;10402;49.012;8.370;2022-07-29T04:01:51;22.40;63.00
20487;DHT22;10402;49.012;8.370;2022-07-29T04:04:17;22.40;63.10
20487;DHT22;10402;49.012;8.370;2022-07-29T04:06:44;22.40;63.10
20487;DHT22;10402;49.012;8.370;2022-07-29T04:09:10;22.30;63.00
20487;DHT22;10402;49.012;8.370;2022-07-29T04:11:38;22.40;63.10
20487;DHT22;10402;49.012;8.370;2022-07-29T04:14:04;22.40;63.20
20487;DHT22;10402;49.012;8.370;2022-07-29T04:16:29;22.30;63.90
20487;DHT22;10402;49.012;8.370;2022-07-29T04:18:55;22.40;63.30
20487;DHT22;10402;49.012;8.370;2022-07-29T04:21:20;22.30;63.30
20487;DHT22;10402;49.012;8.370;2022-07-29T04:23:46;22.30;63.40
20487;DHT22;10402;49.012;8.370;2022-07-29T04:26:16;22.30;63.50
20487;DHT22;10402;49.012;8.370;2022-07-29T04:28:42;22.30;63.50
20487;DHT22;10402;49.012;8.370;2022-07-29T04:31:08;22.40;63.70
20487;DHT22;10402;49.012;8.370;2022-07-29T04:33:34;22.40;63.60
20487;DHT22;10402;49.012;8.370;2022-07-29T04:35:59;22.30;63.60
20487;DHT22;10402;49.012;8.370;2022-07-29T04:38:25;22.40;63.80
20487;DHT22;10402;49.012;8.370;2022-07-29T04:40:50;22.30;63.70
20487;DHT22;10402;49.012;8.370;2022-07-29T04:43:16;22.40;63.80
20487;DHT22;10402;49.012;8.370;2022-07-29T04:45:42;22.40;63.80
20487;DHT22;10402;49.012;8.370;2022-07-29T04:48:08;22.40;63.80
20487;DHT22;10402;49.012;8.370;2022-07-29T04:50:33;22.40;63.80
20487;DHT22;10402;49.012;8.370;2022-07-29T04:52:59;22.40;63.90
20487;DHT22;10402;49.012;8.370;2022-07-29T04:55:25;22.40;64.00
20487;DHT22;10402;49.012;8.370;2022-07-29T04:57:50;22.40;64.00
20487;DHT22;10402;49.012;8.370;2022-07-29T05:00:16;22.40;63.90
20487;DHT22;10402;49.012;8.370;2022-07-29T05:02:42;22.40;63.80
20487;DHT22;10402;49.012;8.370;2022-07-29T05:05:07;22.50;63.80
20487;DHT22;10402;49.012;8.370;2022-07-29T05:07:33;22.50;63.60
20487;DHT22;10402;49.012;8.370;2022-07-29T05:09:59;22.40;63.50
20487;DHT22;10402;49.012;8.370;2022-07-29T05:12:25;22.40;63.60
20487;DHT22;10402;49.012;8.370;2022-07-29T05:14:51;22.30;63.70
20487;DHT22;10402;49.012;8.370;2022-07-29T05:17:17;22.30;64.00
20487;DHT22;10402;49.012;8.370;2022-07-29T05:19:43;22.20;64.00
20487;DHT22;10402;49.012;8.370;2022-07-29T05:22:08;22.10;64.00
20487;DHT22;10402;49.012;8.370;2022-07-29T05:24:34;22.10;64.00
20487;DHT22;10402;49.012;8.370;2022-07-29T05:26:59;22.10;64.20
20487;DHT22;10402;49.012;8.370;2022-07-29T05:29:25;22.10;64.20
20487;DHT22;10402;49.012;8.370;2022-07-29T05:31:51;22.20;64.10
20487;DHT22;10402;49.012;8.370;2022-07-29T05:34:18;22.20;63.90
20487;DHT22;10402;49.012;8.370;2022-07-29T05:36:44;22.20;63.60
20487;DHT22;10402;49.012;8.370;2022-07-29T05:39:10;22.20;63.40
20487;DHT22;10402;49.012;8.370;2022-07-29T05:41:36;22.20;63.10
20487;DHT22;10402;49.012;8.370;2022-07-29T05:44:01;22.20;63.00
20487;DHT22;10402;49.012;8.370;2022-07-29T05:46:27;22.20;63.00
20487;DHT22;10402;49.012;8.370;2022-07-29T05:48:53;22.20;62.90
20487;DHT22;10402;49.012;8.370;2022-07-29T05:51:18;22.20;62.90
20487;DHT22;10402;49.012;8.370;2022-07-29T05:53:44;22.20;62.70
20487;DHT22;10402;49.012;8.370;2022-07-29T05:56:10;22.30;62.60
20487;DHT22;10402;49.012;8.370;2022-07-29T05:58:35;22.30;62.40
20487;DHT22;10402;49.012;8.370;2022-07-29T06:01:02;22.30;62.20
20487;DHT22;10402;49.012;8.370;2022-07-29T06:03:28;22.30;62.10
20487;DHT22;10402;49.012;8.370;2022-07-29T06:05:53;22.30;61.90
20487;DHT22;10402;49.012;8.370;2022-07-29T06:08:19;22.40;61.80
20487;DHT22;10402;49.012;8.370;2022-07-29T06:10:45;22.50;61.70
20487;DHT22;10402;49.012;8.370;2022-07-29T06:13:11;22.50;61.40
20487;DHT22;10402;49.012;8.370;2022-07-29T06:15:37;22.50;61.30
20487;DHT22;10402;49.012;8.370;2022-07-29T06:18:02;22.50;61.20
20487;DHT22;10402;49.012;8.370;2022-07-29T06:20:29;22.60;61.20
20487;DHT22;10402;49.012;8.370;2022-07-29T06:22:55;22.60;61.10
20487;DHT22;10402;49.012;8.370;2022-07-29T06:25:21;22.60;61.10
20487;DHT22;10402;49.012;8.370;2022-07-29T06:27:47;22.70;61.00
20487;DHT22;10402;49.012;8.370;2022-07-29T06:30:12;22.60;60.90
20487;DHT22;10402;49.012;8.370;2022-07-29T06:32:38;22.70;61.00
20487;DHT22;10402;49.012;8.370;2022-07-29T06:35:04;22.70;61.00
20487;DHT22;10402;49.012;8.370;2022-07-29T06:37:29;22.70;60.90
20487;DHT22;10402;49.012;8.370;2022-07-29T06:39:55;22.80;61.00
20487;DHT22;10402;49.012;8.370;2022-07-29T06:42:43;22.90;61.00
20487;DHT22;10402;49.012;8.370;2022-07-29T06:45:12;23.00;60.90
20487;DHT22;10402;49.012;8.370;2022-07-29T06:47:38;23.00;60.80
20487;DHT22;10402;49.012;8.370;2022-07-29T06:50:04;23.00;60.70
20487;DHT22;10402;49.012;8.370;2022-07-29T06:52:30;23.00;60.70
20487;DHT22;10402;49.012;8.370;2022-07-29T06:54:55;23.00;60.60
20487;DHT22;10402;49.012;8.370;2022-07-29T06:57:21;23.10;60.70
20487;DHT22;10402;49.012;8.370;2022-07-29T06:59:47;23.10;60.70
20487;DHT22;10402;49.012;8.370;2022-07-29T07:02:13;23.20;60.70
20487;DHT22;10402;49.012;8.370;2022-07-29T07:04:39;23.20;60.70
20487;DHT22;10402;49.012;8.370;2022-07-29T07:07:04;23.20;60.80
20487;DHT22;10402;49.012;8.370;2022-07-29T07:09:30;23.20;60.70
20487;DHT22;10402;49.012;8.370;2022-07-29T07:11:55;23.30;60.70
20487;DHT22;10402;49.012;8.370;2022-07-29T07:14:21;23.40;60.60
20487;DHT22;10402;49.012;8.370;2022-07-29T07:16:46;23.40;60.50
20487;DHT22;10402;49.012;8.370;2022-07-29T07:19:12;23.40;60.40
20487;DHT22;10402;49.012;8.370;2022-07-29T07:21:38;23.40;60.40
20487;DHT22;10402;49.012;8.370;2022-07-29T07:24:04;23.50;60.40
20487;DHT22;10402;49.012;8.370;2022-07-29T07:26:29;23.50;60.40
20487;DHT22;10402;49.012;8.370;2022-07-29T07:28:55;23.50;60.30
20487;DHT22;10402;49.012;8.370;2022-07-29T07:31:21;23.50;60.40
20487;DHT22;10402;49.012;8.370;2022-07-29T07:33:46;23.50;60.40
20487;DHT22;10402;49.012;8.370;2022-07-29T07:36:12;23.60;60.40
20487;DHT22;10402;49.012;8.370;2022-07-29T07:38:37;23.60;60.20
20487;DHT22;10402;49.012;8.370;2022-07-29T07:41:03;23.60;60.20
20487;DHT22;10402;49.012;8.370;2022-07-29T07:43:28;23.70;60.30
20487;DHT22;10402;49.012;8.370;2022-07-29T07:45:54;23.70;60.20
20487;DHT22;10402;49.012;8.370;2022-07-29T07:48:19;23.70;60.10
20487;DHT22;10402;49.012;8.370;2022-07-29T07:50:45;23.80;60.50
20487;DHT22;10402;49.012;8.370;2022-07-29T07:53:11;23.80;60.00
20487;DHT22;10402;49.012;8.370;2022-07-29T07:55:42;23.80;60.60
20487;DHT22;10402;49.012;8.370;2022-07-29T07:58:08;23.90;59.90
20487;DHT22;10402;49.012;8.370;2022-07-29T08:00:33;23.90;59.80
20487;DHT22;10402;49.012;8.370;2022-07-29T08:02:59;24.00;59.80
20487;DHT22;10402;49.012;8.370;2022-07-29T08:05:25;24.00;59.60
20487;DHT22;10402;49.012;8.370;2022-07-29T08:07:50;24.10;59.60
20487;DHT22;10402;49.012;8.370;2022-07-29T08:10:17;24.20;60.00
20487;DHT22;10402;49.012;8.370;2022-07-29T08:13:07;24.30;59.20
20487;DHT22;10402;49.012;8.370;2022-07-29T08:15:33;24.30;59.10
20487;DHT22;10402;49.012;8.370;2022-07-29T08:18:00;24.30;58.90
20487;DHT22;10402;49.012;8.370;2022-07-29T08:20:25;24.30;58.80
20487;DHT22;10402;49.012;8.370;2022-07-29T08:22:51;24.30;58.60
20487;DHT22;10402;49.012;8.370;2022-07-29T08:25:18;24.30;58.40
20487;DHT22;10402;49.012;8.370;2022-07-29T08:27:48;24.30;58.30
20487;DHT22;10402;49.012;8.370;2022-07-29T08:30:14;24.40;58.30
20487;DHT22;10402;49.012;8.370;2022-07-29T08:32:40;24.40;58.10
20487;DHT22;10402;49.012;8.370;2022-07-29T08:35:05;24.40;57.70
20487;DHT22;10402;49.012;8.370;2022-07-29T08:37:31;24.50;57.60
20487;DHT22;10402;49.012;8.370;2022-07-29T08:39:56;24.60;57.40
20487;DHT22;10402;49.012;8.370;2022-07-29T08:42:22;24.70;57.30
20487;DHT22;10402;49.012;8.370;2022-07-29T08:44:48;24.80;57.20
20487;DHT22;10402;49.012;8.370;2022-07-29T08:47:14;24.90;57.00
20487;DHT22;10402;49.012;8.370;2022-07-29T08:49:40;25.00;56.70
20487;DHT22;10402;49.012;8.370;2022-07-29T08:52:06;25.10;56.60
20487;DHT22;10402;49.012;8.370;2022-07-29T08:54:35;25.20;56.40
20487;DHT22;10402;49.012;8.370;2022-07-29T08:57:01;25.30;56.30
20487;DHT22;10402;49.012;8.370;2022-07-29T08:59:27;25.30;56.10
20487;DHT22;10402;49.012;8.370;2022-07-29T09:01:54;25.30;55.90
20487;DHT22;10402;49.012;8.370;2022-07-29T09:04:24;25.30;55.90
20487;DHT22;10402;49.012;8.370;2022-07-29T09:06:53;25.40;55.70
20487;DHT22;10402;49.012;8.370;2022-07-29T09:09:21;25.40;55.60
20487;DHT22;10402;49.012;8.370;2022-07-29T09:11:47;25.50;55.40
20487;DHT22;10402;49.012;8.370;2022-07-29T09:14:14;25.40;55.20
20487;DHT22;10402;49.012;8.370;2022-07-29T09:16:57;25.50;55.20
20487;DHT22;10402;49.012;8.370;2022-07-29T09:19:34;25.60;55.30
20487;DHT22;10402;49.012;8.370;2022-07-29T09:22:04;25.60;55.30
20487;DHT22;10402;49.012;8.370;2022-07-29T09:24:46;25.70;55.10
20487;DHT22;10402;49.012;8.370;2022-07-29T09:27:24;25.70;54.90
20487;DHT22;10402;49.012;8.370;2022-07-29T09:32:23;25.80;54.60
20487;DHT22;10402;49.012;8.370;2022-07-29T09:34:48;25.80;54.40
20487;DHT22;10402;49.012;8.370;2022-07-29T09:37:26;25.90;54.30
20487;DHT22;10402;49.012;8.370;2022-07-29T09:39:53;25.90;54.30
20487;DHT22;10402;49.012;8.370;2022-07-29T09:42:28;26.00;54.20
20487;DHT22;10402;49.012;8.370;2022-07-29T09:44:55;26.00;54.10
20487;DHT22;10402;49.012;8.370;2022-07-29T09:47:20;26.00;54.00
20487;DHT22;10402;49.012;8.370;2022-07-29T09:49:59;26.10;53.90
20487;DHT22;10402;49.012;8.370;2022-07-29T09:52:29;26.10;53.80
20487;DHT22;10402;49.012;8.370;2022-07-29T09:55:08;26.20;53.70
20487;DHT22;10402;49.012;8.370;2022-07-29T09:57:33;26.20;53.70
20487;DHT22;10402;49.012;8.370;2022-07-29T10:00:04;26.20;53.60
20487;DHT22;10402;49.012;8.370;2022-07-29T10:02:33;26.30;53.40
20487;DHT22;10402;49.012;8.370;2022-07-29T10:05:01;26.40;53.30
20487;DHT22;10402;49.012;8.370;2022-07-29T10:07:46;26.40;53.10
20487;DHT22;10402;49.012;8.370;2022-07-29T10:10:19;26.50;52.90
20487;DHT22;10402;49.012;8.370;2022-07-29T10:12:56;26.60;52.80
20487;DHT22;10402;49.012;8.370;2022-07-29T10:15:27;26.60;52.80
20487;DHT22;10402;49.012;8.370;2022-07-29T10:17:54;26.70;52.80
20487;DHT22;10402;49.012;8.370;2022-07-29T10:20:21;26.70;52.70
20487;DHT22;10402;49.012;8.370;2022-07-29T10:22:48;26.80;52.60
20487;DHT22;10402;49.012;8.370;2022-07-29T10:25:15;26.80;52.50
20487;DHT22;10402;49.012;8.370;2022-07-29T10:27:42;26.90;52.20
20487;DHT22;10402;49.012;8.370;2022-07-29T10:30:08;26.90;52.00
20487;DHT22;10402;49.012;8.370;2022-07-29T10:38:04;26.90;51.30
20487;DHT22;10402;49.012;8.370;2022-07-29T10:40:45;26.90;51.20
20487;DHT22;10402;49.012;8.370;2022-07-29T10:43:37;27.00;51.20
20487;DHT22;10402;49.012;8.370;2022-07-29T10:46:05;27.10;51.30
20487;DHT22;10402;49.012;8.370;2022-07-29T10:48:31;27.10;51.10
20487;DHT22;10402;49.012;8.370;2022-07-29T10:51:02;27.10;50.90
20487;DHT22;10402;49.012;8.370;2022-07-29T10:53:56;27.10;50.80
20487;DHT22;10402;49.012;8.370;2022-07-29T10:56:29;27.10;50.80
20487;DHT22;10402;49.012;8.370;2022-07-29T11:01:50;27.20;50.60
20487;DHT22;10402;49.012;8.370;2022-07-29T11:04:16;27.20;50.40
20487;DHT22;10402;49.012;8.370;2022-07-29T11:09:30;27.10;50.40
20487;DHT22;10402;49.012;8.370;2022-07-29T11:11:59;27.20;50.40
20487;DHT22;10402;49.012;8.370;2022-07-29T11:14:59;27.30;50.30
20487;DHT22;10402;49.012;8.370;2022-07-29T11:17:27;27.30;50.00
20487;DHT22;10402;49.012;8.370;2022-07-29T11:22:57;27.50;49.80
20487;DHT22;10402;49.012;8.370;2022-07-29T11:25:23;27.50;49.60
20487;DHT22;10402;49.012;8.370;2022-07-29T11:27:49;27.50;49.50
20487;DHT22;10402;49.012;8.370;2022-07-29T11:30:16;27.60;49.40
20487;DHT22;10402;49.012;8.370;2022-07-29T11:32:43;27.60;49.10
20487;DHT22;10402;49.012;8.370;2022-07-29T11:35:14;27.70;49.10
20487;DHT22;10402;49.012;8.370;2022-07-29T11:37:40;27.80;49.20
20487;DHT22;10402;49.012;8.370;2022-07-29T11:45:03;27.90;48.80
20487;DHT22;10402;49.012;8.370;2022-07-29T11:47:34;27.90;48.70
20487;DHT22;10402;49.012;8.370;2022-07-29T11:50:03;28.00;48.60
20487;DHT22;10402;49.012;8.370;2022-07-29T11:52:37;28.00;48.60
20487;DHT22;10402;49.012;8.370;2022-07-29T11:55:09;28.00;48.50
20487;DHT22;10402;49.012;8.370;2022-07-29T11:57:35;28.10;48.30
20487;DHT22;10402;49.012;8.370;2022-07-29T12:00:06;28.20;48.20
20487;DHT22;10402;49.012;8.370;2022-07-29T12:02:40;28.20;48.10
20487;DHT22;10402;49.012;8.370;2022-07-29T12:05:07;28.20;48.10
20487;DHT22;10402;49.012;8.370;2022-07-29T12:07:33;28.30;48.00
20487;DHT22;10402;49.012;8.370;2022-07-29T12:10:00;28.30;47.90
20487;DHT22;10402;49.012;8.370;2022-07-29T12:12:25;28.30;47.80
20487;DHT22;10402;49.012;8.370;2022-07-29T12:14:51;28.20;47.60
20487;DHT22;10402;49.012;8.370;2022-07-29T12:17:34;28.20;47.70
20487;DHT22;10402;49.012;8.370;2022-07-29T12:20:02;28.20;47.80
20487;DHT22;10402;49.012;8.370;2022-07-29T12:22:32;28.20;47.60
20487;DHT22;10402;49.012;8.370;2022-07-29T12:25:03;28.20;47.50
20487;DHT22;10402;49.012;8.370;2022-07-29T12:27:29;28.20;47.10
20487;DHT22;10402;49.012;8.370;2022-07-29T12:29:59;28.20;46.90
20487;DHT22;10402;49.012;8.370;2022-07-29T12:32:37;28.30;47.00
20487;DHT22;10402;49.012;8.370;2022-07-29T12:35:05;28.30;47.00
20487;DHT22;10402;49.012;8.370;2022-07-29T12:37:36;28.30;46.90
20487;DHT22;10402;49.012;8.370;2022-07-29T12:40:04;28.40;46.70
20487;DHT22;10402;49.012;8.370;2022-07-29T12:42:30;28.40;46.60
20487;DHT22;10402;49.012;8.370;2022-07-29T12:44:56;28.50;46.40
20487;DHT22;10402;49.012;8.370;2022-07-29T12:47:22;28.50;46.40
20487;DHT22;10402;49.012;8.370;2022-07-29T12:49:49;28.50;46.20
20487;DHT22;10402;49.012;8.370;2022-07-29T12:52:30;28.50;46.00
20487;DHT22;10402;49.012;8.370;2022-07-29T12:54:56;28.50;45.90
20487;DHT22;10402;49.012;8.370;2022-07-29T12:57:22;28.50;45.80
20487;DHT22;10402;49.012;8.370;2022-07-29T13:00:10;28.60;45.90
20487;DHT22;10402;49.012;8.370;2022-07-29T13:02:37;28.60;45.80
20487;DHT22;10402;49.012;8.370;2022-07-29T13:05:04;28.60;45.60
20487;DHT22;10402;49.012;8.370;2022-07-29T13:07:31;28.60;46.10
20487;DHT22;10402;49.012;8.370;2022-07-29T13:10:14;28.60;45.50
20487;DHT22;10402;49.012;8.370;2022-07-29T13:13:06;28.50;45.50
20487;DHT22;10402;49.012;8.370;2022-07-29T13:15:34;28.50;45.60
20487;DHT22;10402;49.012;8.370;2022-07-29T13:17:59;28.50;45.50
20487;DHT22;10402;49.012;8.370;2022-07-29T13:20:27;28.50;45.40
20487;DHT22;10402;49.012;8.370;2022-07-29T13:22:57;28.60;45.50
20487;DHT22;10402;49.012;8.370;2022-07-29T13:25:33;28.60;45.40
20487;DHT22;10402;49.012;8.370;2022-07-29T13:27:59;28.50;45.30
20487;DHT22;10402;49.012;8.370;2022-07-29T13:30:25;28.60;45.30
20487;DHT22;10402;49.012;8.370;2022-07-29T13:32:52;28.60;45.20
20487;DHT22;10402;49.012;8.370;2022-07-29T13:35:18;28.60;45.10
20487;DHT22;10402;49.012;8.370;2022-07-29T13:37:44;28.60;45.20
20487;DHT22;10402;49.012;8.370;2022-07-29T13:40:11;28.60;45.10
20487;DHT22;10402;49.012;8.370;2022-07-29T13:42:37;28.60;45.00
20487;DHT22;10402;49.012;8.370;2022-07-29T13:45:03;28.60;44.80
20487;DHT22;10402;49.012;8.370;2022-07-29T13:47:30;28.60;44.80
20487;DHT22;10402;49.012;8.370;2022-07-29T13:49:55;28.50;44.60
20487;DHT22;10402;49.012;8.370;2022-07-29T13:52:21;28.50;44.50
20487;DHT22;10402;49.012;8.370;2022-07-29T13:54:47;28.50;44.60
20487;DHT22;10402;49.012;8.370;2022-07-29T13:57:13;28.50;44.50
20487;DHT22;10402;49.012;8.370;2022-07-29T13:59:42;28.50;44.20
20487;DHT22;10402;49.012;8.370;2022-07-29T14:02:09;28.50;44.20
20487;DHT22;10402;49.012;8.370;2022-07-29T14:04:35;28.50;44.10
20487;DHT22;10402;49.012;8.370;2022-07-29T14:07:01;28.60;44.10
20487;DHT22;10402;49.012;8.370;2022-07-29T14:09:27;28.60;43.80
20487;DHT22;10402;49.012;8.370;2022-07-29T14:11:52;28.60;44.40
20487;DHT22;10402;49.012;8.370;2022-07-29T14:14:19;28.60;43.80
20487;DHT22;10402;49.012;8.370;2022-07-29T14:16:45;28.60;43.60
20487;DHT22;10402;49.012;8.370;2022-07-29T14:19:11;28.60;43.50
20487;DHT22;10402;49.012;8.370;2022-07-29T14:21:37;28.60;43.50
20487;DHT22;10402;49.012;8.370;2022-07-29T14:24:03;28.60;43.20
20487;DHT22;10402;49.012;8.370;2022-07-29T14:26:29;28.60;43.20
20487;DHT22;10402;49.012;8.370;2022-07-29T14:28:54;28.60;43.10
20487;DHT22;10402;49.012;8.370;2022-07-29T14:31:20;28.60;42.90
20487;DHT22;10402;49.012;8.370;2022-07-29T14:36:14;28.60;42.80
20487;DHT22;10402;49.012;8.370;2022-07-29T14:38:40;28.60;42.70
20487;DHT22;10402;49.012;8.370;2022-07-29T14:41:06;28.60;42.60
20487;DHT22;10402;49.012;8.370;2022-07-29T14:43:32;28.60;42.60
20487;DHT22;10402;49.012;8.370;2022-07-29T14:45:57;28.60;42.40
20487;DHT22;10402;49.012;8.370;2022-07-29T14:48:23;28.60;42.30
20487;DHT22;10402;49.012;8.370;2022-07-29T14:50:48;28.60;42.20
20487;DHT22;10402;49.012;8.370;2022-07-29T14:53:14;28.60;42.10
20487;DHT22;10402;49.012;8.370;2022-07-29T14:55:40;28.60;42.10
20487;DHT22;10402;49.012;8.370;2022-07-29T14:58:07;28.60;41.90
20487;DHT22;10402;49.012;8.370;2022-07-29T15:00:32;28.60;41.90
20487;DHT22;10402;49.012;8.370;2022-07-29T15:02:59;28.60;41.70
20487;DHT22;10402;49.012;8.370;2022-07-29T15:05:26;28.60;41.70
20487;DHT22;10402;49.012;8.370;2022-07-29T15:07:51;28.70;41.70
20487;DHT22;10402;49.012;8.370;2022-07-29T15:10:17;28.70;41.60
20487;DHT22;10402;49.012;8.370;2022-07-29T15:12:42;28.70;41.40
20487;DHT22;10402;49.012;8.370;2022-07-29T15:15:08;28.70;41.40
20487;DHT22;10402;49.012;8.370;2022-07-29T15:17:34;28.80;41.20
20487;DHT22;10402;49.012;8.370;2022-07-29T15:19:59;28.80;41.10
20487;DHT22;10402;49.012;8.370;2022-07-29T15:22:25;28.70;40.90
20487;DHT22;10402;49.012;8.370;2022-07-29T15:24:50;28.70;40.90
20487;DHT22;10402;49.012;8.370;2022-07-29T15:27:16;28.70;40.80
20487;DHT22;10402;49.012;8.370;2022-07-29T15:29:42;28.70;40.80
20487;DHT22;10402;49.012;8.370;2022-07-29T15:32:08;28.80;40.90
20487;DHT22;10402;49.012;8.370;2022-07-29T15:34:35;28.80;40.80
20487;DHT22;10402;49.012;8.370;2022-07-29T15:37:01;28.80;40.80
20487;DHT22;10402;49.012;8.370;2022-07-29T15:39:26;28.80;40.60
20487;DHT22;10402;49.012;8.370;2022-07-29T15:41:52;28.90;40.60
20487;DHT22;10402;49.012;8.370;2022-07-29T15:44:18;28.90;40.50
20487;DHT22;10402;49.012;8.370;2022-07-29T15:46:44;29.00;40.50
20487;DHT22;10402;49.012;8.370;2022-07-29T15:49:29;29.00;40.30
20487;DHT22;10402;49.012;8.370;2022-07-29T15:52:02;29.00;40.20
20487;DHT22;10402;49.012;8.370;2022-07-29T15:54:28;29.00;40.20
20487;DHT22;10402;49.012;8.370;2022-07-29T15:56:54;28.90;40.10
20487;DHT22;10402;49.012;8.370;2022-07-29T15:59:20;28.90;40.00
20487;DHT22;10402;49.012;8.370;2022-07-29T16:01:46;28.90;40.10
20487;DHT22;10402;49.012;8.370;2022-07-29T16:04:12;28.90;40.00
20487;DHT22;10402;49.012;8.370;2022-07-29T16:06:38;28.90;39.80
20487;DHT22;10402;49.012;8.370;2022-07-29T16:09:03;28.80;39.60